Time;durP1;ratioP1;P1;durP2;ratioP2;P2;SDS_P1;SDS_P2;PMS_P1;PMS_P2;Temp;Humidity;BMP_temperature;BMP_pressure;BME280_temperature;BME280_humidity;BME280_pressure;Samples;Min_cycle;Max_cycle;Signal;HPM_P1;HPM_P2
2022/11/05 00:10:02;;;;;;;9.90;4.15;;;;;;;;;;5014972;28;20487;-76
2022/11/05 00:19:07;;;;;;;16.92;6.43;;;;;;;;;;5015288;28;20049;-76
2022/11/05 00:25:15;;;;;;;15.40;6.00;;;;;;;;;;5021749;28;20050;-76
2022/11/05 00:28:01;;;;;;;17.20;6.65;;;;;;;;;;5015058;28;20503;-75
2022/11/05 00:30:47;;;;;;;16.13;5.18;;;;;;;;;;5021616;28;20471;-75
2022/11/05 00:33:32;;;;;;;12.13;5.93;;;;;;;;;;5021482;28;20046;-75
2022/11/05 00:36:18;;;;;;;15.73;6.35;;;;;;;;;;5014795;28;20038;-75
2022/11/05 00:39:04;;;;;;;14.98;6.43;;;;;;;;;;5015079;28;20047;-75
2022/11/05 00:44:58;;;;;;;18.88;5.93;;;;;;;;;;5020585;28;20050;-75
2022/11/05 00:45:01;;;;;;;15.25;5.50;;;;;;;;;;5014694;28;20037;-75
2022/11/05 00:50:50;;;;;;;14.63;6.72;;;;;;;;;;5014371;28;20417;-75
2022/11/05 00:53:35;;;;;;;17.23;6.40;;;;;;;;;;5014569;28;20471;-76
2022/11/05 00:56:21;;;;;;;12.70;6.38;;;;;;;;;;5014469;28;20041;-75
2022/11/05 00:59:06;;;;;;;12.82;5.28;;;;;;;;;;5014690;28;20042;-75
2022/11/05 01:01:51;;;;;;;17.48;5.15;;;;;;;;;;5020951;28;20495;-76
2022/11/05 01:04:35;;;;;;;14.85;5.45;;;;;;;;;;5014242;28;20038;-76
2022/11/05 01:07:20;;;;;;;17.73;5.28;;;;;;;;;;5014463;28;20042;-75
2022/11/05 01:10:05;;;;;;;16.90;5.40;;;;;;;;;;5014015;28;20041;-76
2022/11/05 01:12:51;;;;;;;15.00;6.10;;;;;;;;;;5014602;28;20058;-76
2022/11/05 01:15:37;;;;;;;15.90;5.60;;;;;;;;;;5014336;28;20475;-76
2022/11/05 01:18:23;;;;;;;14.65;6.18;;;;;;;;;;5013862;28;20074;-76
2022/11/05 01:21:10;;;;;;;17.98;6.18;;;;;;;;;;5014492;28;20471;-76
2022/11/05 01:23:56;;;;;;;13.38;6.80;;;;;;;;;;5014049;28;20499;-76
2022/11/05 01:26:41;;;;;;;15.70;6.82;;;;;;;;;;5013972;28;20046;-76
2022/11/05 01:29:27;;;;;;;18.60;6.78;;;;;;;;;;5014434;28;20484;-76
2022/11/05 01:32:12;;;;;;;15.25;6.75;;;;;;;;;;5020403;28;20054;-75
2022/11/05 01:34:58;;;;;;;19.38;7.15;;;;;;;;;;5020817;28;20046;-76
2022/11/05 01:37:44;;;;;;;16.92;7.00;;;;;;;;;;5013951;28;20049;-76
2022/11/05 01:40:29;;;;;;;17.10;6.10;;;;;;;;;;5013604;28;20049;-76
2022/11/05 01:43:17;;;;;;;14.90;6.28;;;;;;;;;;5014176;28;20050;-76
2022/11/05 01:46:02;;;;;;;19.60;6.53;;;;;;;;;;5013690;28;20050;-76
2022/11/05 01:48:51;;;;;;;17.33;6.25;;;;;;;;;;5013748;28;20046;-76
2022/11/05 01:51:38;;;;;;;15.43;6.18;;;;;;;;;;5014306;28;20046;-76
2022/11/05 01:54:27;;;;;;;16.50;6.82;;;;;;;;;;5023271;28;20046;-76
2022/11/05 01:57:13;;;;;;;15.65;6.43;;;;;;;;;;5018099;28;20491;-75
2022/11/05 02:00:00;;;;;;;23.27;6.97;;;;;;;;;;5018043;28;20046;-75
2022/11/05 02:02:46;;;;;;;21.52;7.25;;;;;;;;;;5023591;28;20038;-75
2022/11/05 02:05:32;;;;;;;19.35;7.72;;;;;;;;;;5017708;28;20394;-75
2022/11/05 02:08:40;;;;;;;17.33;7.75;;;;;;;;;;5017588;28;20054;-75
2022/11/05 02:11:26;;;;;;;19.00;7.75;;;;;;;;;;5023914;28;20050;-76
2022/11/05 02:14:11;;;;;;;17.42;8.13;;;;;;;;;;5017416;28;20042;-75
2022/11/05 02:16:58;;;;;;;17.48;8.10;;;;;;;;;;5017577;28;20046;-75
2022/11/05 02:20:08;;;;;;;16.95;7.82;;;;;;;;;;5017740;28;20050;-75
2022/11/05 02:23:19;;;;;;;19.52;7.72;;;;;;;;;;5023888;28;20042;-75
2022/11/05 02:26:46;;;;;;;17.10;7.72;;;;;;;;;;5023360;28;20053;-76
2022/11/05 02:29:51;;;;;;;18.13;7.82;;;;;;;;;;5016919;28;20041;-77
2022/11/05 02:32:46;;;;;;;18.17;8.30;;;;;;;;;;5017134;28;20046;-77
2022/11/05 02:35:40;;;;;;;19.33;8.68;;;;;;;;;;5017077;28;20479;-76
2022/11/05 02:38:38;;;;;;;19.65;8.63;;;;;;;;;;5017093;28;20042;-77
2022/11/05 02:41:50;;;;;;;26.38;8.60;;;;;;;;;;5017209;28;20050;-77
2022/11/05 02:44:55;;;;;;;18.27;7.97;;;;;;;;;;5023543;28;20045;-77
2022/11/05 02:47:49;;;;;;;23.35;7.97;;;;;;;;;;5016493;28;20403;-75
2022/11/05 02:51:02;;;;;;;21.90;8.38;;;;;;;;;;5016472;28;20045;-76
2022/11/05 02:53:57;;;;;;;21.38;8.68;;;;;;;;;;5023627;28;20049;-75
2022/11/05 02:56:51;;;;;;;23.50;9.18;;;;;;;;;;5023201;28;20041;-76
2022/11/05 02:59:37;;;;;;;16.13;9.15;;;;;;;;;;5016708;28;20479;-75
2022/11/05 03:02:22;;;;;;;20.75;8.73;;;;;;;;;;5023170;28;20042;-76
2022/11/05 03:05:07;;;;;;;18.10;7.97;;;;;;;;;;5016245;28;20049;-75
2022/11/05 03:08:01;;;;;;;23.88;8.90;;;;;;;;;;5016631;28;20057;-75
2022/11/05 03:11:15;;;;;;;17.17;8.32;;;;;;;;;;5022705;28;20042;-75
2022/11/05 03:14:21;;;;;;;21.58;8.70;;;;;;;;;;5023330;28;20487;-75
2022/11/05 03:17:15;;;;;;;13.63;7.78;;;;;;;;;;5016308;28;20046;-75
2022/11/05 03:20:16;;;;;;;;;;;;;;;;;;5016865;28;20400;-73
2022/11/05 03:23:20;;;;;;;15.95;9.15;;;;;;;;;;5016633;28;19913;-75
2022/11/05 03:26:16;;;;;;;23.67;8.95;;;;;;;;;;5022992;28;20054;-76
2022/11/05 03:29:05;;;;;;;21.65;8.15;;;;;;;;;;5016140;28;20038;-75
2022/11/05 03:31:54;;;;;;;23.73;9.43;;;;;;;;;;5016577;28;20046;-75
2022/11/05 03:34:47;;;;;;;20.67;9.43;;;;;;;;;;5016196;28;20042;-76
2022/11/05 03:37:36;;;;;;;16.38;9.20;;;;;;;;;;5016047;28;20038;-76
2022/11/05 03:40:23;;;;;;;20.98;9.38;;;;;;;;;;5022818;28;20045;-75
2022/11/05 03:43:09;;;;;;;21.60;9.63;;;;;;;;;;5015907;28;20041;-76
2022/11/05 03:46:06;;;;;;;16.75;8.75;;;;;;;;;;5020333;28;20050;-75
2022/11/05 03:48:55;;;;;;;22.10;9.60;;;;;;;;;;5015688;28;20484;-76
2022/11/05 03:51:47;;;;;;;19.15;10.40;;;;;;;;;;5015070;28;20046;-75
2022/11/05 03:54:33;;;;;;;32.72;13.95;;;;;;;;;;5022246;28;20041;-75
2022/11/05 03:57:23;;;;;;;25.52;10.55;;;;;;;;;;5015498;28;20109;-75
2022/11/05 04:00:09;;;;;;;26.67;9.55;;;;;;;;;;5015143;28;20391;-75
2022/11/05 04:02:57;;;;;;;15.63;7.90;;;;;;;;;;5015244;28;20045;-75
2022/11/05 04:05:43;;;;;;;20.73;8.38;;;;;;;;;;5015324;28;20483;-76
2022/11/05 04:14:55;;;;;;;24.63;10.93;;;;;;;;;;5015270;28;20050;-75
2022/11/05 04:17:41;;;;;;;22.73;9.48;;;;;;;;;;5021274;28;20054;-76
2022/11/05 04:24:15;;;;;;;17.33;8.63;;;;;;;;;;5015021;28;20042;-75
2022/11/05 04:26:38;;;;;;;38.85;18.15;;;;;;;;;;5014559;28;20451;-76
2022/11/05 04:32:26;;;;;;;20.70;8.60;;;;;;;;;;5020443;28;20042;-75
2022/11/05 04:35:11;;;;;;;19.73;9.25;;;;;;;;;;5014690;28;20038;-75
2022/11/05 04:37:57;;;;;;;20.98;10.75;;;;;;;;;;5015164;28;20037;-75
2022/11/05 04:40:43;;;;;;;24.65;10.30;;;;;;;;;;5021464;28;20045;-75
2022/11/05 04:43:28;;;;;;;22.33;10.55;;;;;;;;;;5015014;28;20395;-75
2022/11/05 04:46:14;;;;;;;22.92;10.57;;;;;;;;;;5014033;28;20046;-75
2022/11/05 04:48:59;;;;;;;29.48;13.75;;;;;;;;;;5014405;28;20046;-75
2022/11/05 04:51:43;;;;;;;16.50;7.47;;;;;;;;;;5014414;28;20038;-75
2022/11/05 04:54:28;;;;;;;27.48;10.55;;;;;;;;;;5021028;28;20045;-75
2022/11/05 04:57:14;;;;;;;24.77;11.40;;;;;;;;;;5014415;28;20050;-75
2022/11/05 05:00:00;;;;;;;22.27;10.07;;;;;;;;;;5014571;28;20042;-75
2022/11/05 05:02:46;;;;;;;26.27;10.68;;;;;;;;;;5020951;28;20045;-75
2022/11/05 05:05:32;;;;;;;21.80;9.23;;;;;;;;;;5014640;28;20050;-75
2022/11/05 05:08:17;;;;;;;24.55;9.82;;;;;;;;;;5014230;28;20045;-75
2022/11/05 05:11:09;;;;;;;21.88;9.65;;;;;;;;;;5020411;28;20042;-75
2022/11/05 05:13:54;;;;;;;25.23;10.77;;;;;;;;;;5014258;28;20426;-75
2022/11/05 05:16:39;;;;;;;32.97;13.38;;;;;;;;;;5019568;28;20404;-75
2022/11/05 05:19:25;;;;;;;23.48;10.38;;;;;;;;;;5014168;28;20058;-75
2022/11/05 05:22:10;;;;;;;25.63;12.48;;;;;;;;;;5020613;28;20046;-75
2022/11/05 05:24:55;;;;;;;22.65;11.13;;;;;;;;;;5013566;28;20145;-75
2022/11/05 05:27:41;;;;;;;20.00;9.93;;;;;;;;;;5013865;28;20049;-76
2022/11/05 05:30:27;;;;;;;21.75;9.20;;;;;;;;;;5013109;28;20049;-76
2022/11/05 05:33:13;;;;;;;22.77;10.00;;;;;;;;;;5014082;28;20399;-76
2022/11/05 05:35:58;;;;;;;21.73;10.20;;;;;;;;;;5013608;28;20511;-76
2022/11/05 05:38:44;;;;;;;18.45;8.18;;;;;;;;;;5013563;28;20057;-76
2022/11/05 05:41:29;;;;;;;18.63;7.38;;;;;;;;;;5013803;28;20045;-75
2022/11/05 05:44:15;;;;;;;16.75;7.70;;;;;;;;;;5014175;28;20042;-75
2022/11/05 05:47:00;;;;;;;22.08;7.90;;;;;;;;;;5015208;28;20050;-76
2022/11/05 05:49:47;;;;;;;16.70;7.47;;;;;;;;;;5013617;28;20414;-75
2022/11/05 05:52:32;;;;;;;19.80;7.55;;;;;;;;;;5013922;28;20042;-76
2022/11/05 05:55:18;;;;;;;16.73;7.32;;;;;;;;;;5013732;28;20046;-76
2022/11/05 05:58:04;;;;;;;15.70;7.38;;;;;;;;;;5013705;28;20491;-76
2022/11/05 06:00:49;;;;;;;14.07;6.55;;;;;;;;;;5013999;28;20053;-76
2022/11/05 06:03:35;;;;;;;16.20;6.47;;;;;;;;;;5014020;28;20041;-76
2022/11/05 06:06:21;;;;;;;15.02;6.65;;;;;;;;;;5020091;28;20042;-76
2022/11/05 06:09:06;;;;;;;10.73;5.40;;;;;;;;;;5019829;28;20042;-74
2022/11/05 06:11:51;;;;;;;17.30;6.95;;;;;;;;;;5013557;28;20050;-76
2022/11/05 06:14:37;;;;;;;22.10;8.18;;;;;;;;;;5013426;28;20483;-75
2022/11/05 06:17:23;;;;;;;17.77;8.07;;;;;;;;;;5013024;28;20050;-76
2022/11/05 06:20:09;;;;;;;15.23;7.50;;;;;;;;;;5013267;28;20054;-76
2022/11/05 06:22:58;;;;;;;17.85;7.75;;;;;;;;;;5013219;28;20041;-75
2022/11/05 06:25:43;;;;;;;18.70;7.80;;;;;;;;;;5019902;28;20049;-76
2022/11/05 06:28:29;;;;;;;18.08;8.15;;;;;;;;;;5019556;28;20049;-75
2022/11/05 06:31:15;;;;;;;16.27;7.93;;;;;;;;;;5019378;28;20042;-75
2022/11/05 06:34:00;;;;;;;15.95;9.00;;;;;;;;;;5013225;28;20046;-76
2022/11/05 06:36:45;;;;;;;22.83;8.88;;;;;;;;;;5013301;28;20046;-75
2022/11/05 06:39:30;;;;;;;16.48;8.88;;;;;;;;;;5021608;28;20383;-75
2022/11/05 06:42:15;;;;;;;17.67;10.65;;;;;;;;;;5023423;28;20041;-75
2022/11/05 06:45:01;;;;;;;24.92;13.48;;;;;;;;;;5016713;28;20038;-76
2022/11/05 06:47:46;;;;;;;40.50;20.40;;;;;;;;;;5016928;28;20042;-75
2022/11/05 06:50:32;;;;;;;207.18;96.07;;;;;;;;;;5016239;28;20050;-76
2022/11/05 06:53:17;;;;;;;57.03;26.80;;;;;;;;;;5016663;28;20483;-76
2022/11/05 06:56:05;;;;;;;25.52;12.18;;;;;;;;;;5016604;28;20046;-76
2022/11/05 06:58:50;;;;;;;19.73;9.57;;;;;;;;;;5016302;28;20046;-76
2022/11/05 07:01:37;;;;;;;23.63;12.30;;;;;;;;;;5016479;28;20507;-76
2022/11/05 07:04:22;;;;;;;18.42;10.55;;;;;;;;;;5022886;28;20054;-76
2022/11/05 07:07:07;;;;;;;11.18;7.00;;;;;;;;;;5016309;28;20049;-76
2022/11/05 07:09:53;;;;;;;25.92;13.30;;;;;;;;;;5016219;28;20041;-76
2022/11/05 07:12:38;;;;;;;22.50;11.60;;;;;;;;;;5016358;28;20041;-76
2022/11/05 07:15:24;;;;;;;24.90;13.88;;;;;;;;;;5016680;28;20483;-76
2022/11/05 07:18:10;;;;;;;25.05;11.45;;;;;;;;;;5023852;28;20199;-76
2022/11/05 07:20:55;;;;;;;22.02;12.52;;;;;;;;;;5017048;28;20038;-76
2022/11/05 07:23:41;;;;;;;21.52;9.98;;;;;;;;;;5022750;28;20488;-75
2022/11/05 07:26:26;;;;;;;20.50;10.85;;;;;;;;;;5022461;28;20053;-76
2022/11/05 07:29:12;;;;;;;21.17;9.60;;;;;;;;;;5021877;28;20079;-75
2022/11/05 07:31:59;;;;;;;22.58;12.48;;;;;;;;;;5016109;28;20050;-76
2022/11/05 07:34:44;;;;;;;22.65;11.23;;;;;;;;;;5022368;28;20042;-76
2022/11/05 07:37:30;;;;;;;23.67;11.18;;;;;;;;;;5015766;28;20049;-86
2022/11/05 07:40:17;;;;;;;22.73;11.95;;;;;;;;;;5016864;28;20419;-80
2022/11/05 07:43:02;;;;;;;27.33;13.13;;;;;;;;;;5016381;28;20475;-80
2022/11/05 07:45:47;;;;;;;20.17;11.48;;;;;;;;;;5016118;28;20050;-79
2022/11/05 07:48:33;;;;;;;18.25;12.07;;;;;;;;;;5015750;28;20046;-81
2022/11/05 07:51:18;;;;;;;28.67;11.63;;;;;;;;;;5015411;28;20042;-81
2022/11/05 07:54:04;;;;;;;25.40;11.90;;;;;;;;;;5015631;28;20503;-80
2022/11/05 07:56:49;;;;;;;22.95;11.30;;;;;;;;;;5014038;28;20399;-79
2022/11/05 07:59:34;;;;;;;20.10;11.25;;;;;;;;;;5015488;28;20064;-80
2022/11/05 08:02:20;;;;;;;17.58;11.48;;;;;;;;;;5015418;28;20041;-80
2022/11/05 08:05:07;;;;;;;22.00;11.30;;;;;;;;;;5020910;28;20050;-82
2022/11/05 08:07:54;;;;;;;24.67;12.25;;;;;;;;;;5015341;28;20410;-81
2022/11/05 08:10:39;;;;;;;25.20;12.02;;;;;;;;;;5014766;28;20050;-81
2022/11/05 08:13:24;;;;;;;26.08;14.00;;;;;;;;;;5020581;28;20042;-80
2022/11/05 08:16:10;;;;;;;24.45;13.52;;;;;;;;;;5021593;28;20046;-80
2022/11/05 08:18:55;;;;;;;24.42;12.93;;;;;;;;;;5015041;28;20050;-80
2022/11/05 08:21:41;;;;;;;19.73;11.80;;;;;;;;;;5014949;28;20137;-80
2022/11/05 08:24:26;;;;;;;37.75;18.42;;;;;;;;;;5015337;28;20479;-79
2022/11/05 08:27:12;;;;;;;41.85;22.73;;;;;;;;;;5014754;28;20503;-80
2022/11/05 08:29:58;;;;;;;37.08;15.48;;;;;;;;;;5014773;28;20046;-80
2022/11/05 08:32:43;;;;;;;38.85;15.77;;;;;;;;;;5014985;28;20038;-80
2022/11/05 08:35:29;;;;;;;28.00;15.00;;;;;;;;;;5014930;28;20050;-80
2022/11/05 08:38:17;;;;;;;35.78;16.70;;;;;;;;;;5014932;28;20045;-80
2022/11/05 08:41:02;;;;;;;41.45;20.77;;;;;;;;;;5015875;28;20046;-77
2022/11/05 08:43:48;;;;;;;43.88;21.02;;;;;;;;;;5020203;28;20054;-78
2022/11/05 08:46:37;;;;;;;32.90;16.73;;;;;;;;;;5014605;28;20042;-77
2022/11/05 08:49:22;;;;;;;29.02;13.88;;;;;;;;;;5022907;28;20042;-78
2022/11/05 08:52:07;;;;;;;21.75;13.27;;;;;;;;;;5015732;28;20395;-78
2022/11/05 08:54:53;;;;;;;27.52;14.00;;;;;;;;;;5014385;28;20046;-76
2022/11/05 08:57:39;;;;;;;31.25;14.30;;;;;;;;;;5014492;28;20395;-79
2022/11/05 09:00:27;;;;;;;26.98;13.50;;;;;;;;;;5014252;28;20054;-79
2022/11/05 09:03:12;;;;;;;34.72;13.98;;;;;;;;;;5013363;28;20053;-79
2022/11/05 09:05:58;;;;;;;25.90;13.70;;;;;;;;;;5012265;28;20371;-78
2022/11/05 09:08:43;;;;;;;31.20;14.50;;;;;;;;;;5013575;28;20038;-78
2022/11/05 09:11:30;;;;;;;34.88;14.82;;;;;;;;;;5012865;28;20049;-77
2022/11/05 09:14:15;;;;;;;33.75;15.18;;;;;;;;;;5020362;28;20046;-78
2022/11/05 09:17:01;;;;;;;27.10;14.65;;;;;;;;;;5012714;28;20054;-79
2022/11/05 09:19:47;;;;;;;29.40;14.20;;;;;;;;;;5013597;28;20042;-79
2022/11/05 09:22:32;;;;;;;25.73;13.63;;;;;;;;;;5013429;28;20050;-79
2022/11/05 09:25:19;;;;;;;25.65;13.73;;;;;;;;;;5013591;28;20033;-79
2022/11/05 09:28:14;;;;;;;24.95;13.60;;;;;;;;;;5013545;28;20499;-82
2022/11/05 09:31:05;;;;;;;26.13;12.65;;;;;;;;;;5013582;28;20042;-78
2022/11/05 09:33:51;;;;;;;27.35;13.18;;;;;;;;;;5014248;28;20058;-78
2022/11/05 09:36:37;;;;;;;25.95;12.57;;;;;;;;;;5015749;28;20137;-80
2022/11/05 09:39:22;;;;;;;35.75;18.13;;;;;;;;;;5013276;28;20042;-77
2022/11/05 09:42:13;;;;;;;50.28;22.73;;;;;;;;;;5019833;28;20046;-78
2022/11/05 09:45:19;;;;;;;37.85;17.60;;;;;;;;;;5013551;28;20046;-77
2022/11/05 09:48:13;;;;;;;50.60;20.83;;;;;;;;;;5013390;28;20050;-77
2022/11/05 09:50:59;;;;;;;33.80;15.25;;;;;;;;;;5014333;28;20050;-77
2022/11/05 09:53:45;;;;;;;25.55;14.73;;;;;;;;;;5020218;28;20045;-80
2022/11/05 09:56:33;;;;;;;27.10;12.88;;;;;;;;;;5020035;28;20042;-77
2022/11/05 09:59:39;;;;;;;24.80;12.82;;;;;;;;;;5013716;28;20050;-77
2022/11/05 10:02:32;;;;;;;28.52;13.13;;;;;;;;;;5019134;28;20061;-77
2022/11/05 10:05:20;;;;;;;27.30;13.35;;;;;;;;;;5013012;28;20395;-77
2022/11/05 10:08:22;;;;;;;31.10;14.18;;;;;;;;;;5012015;28;20415;-77
2022/11/05 10:11:19;;;;;;;25.23;14.10;;;;;;;;;;5013089;28;20034;-77
2022/11/05 10:14:16;;;;;;;30.02;14.63;;;;;;;;;;5015493;28;20057;-78
2022/11/05 10:17:11;;;;;;;30.83;14.65;;;;;;;;;;5023701;28;20054;-77
2022/11/05 10:20:15;;;;;;;29.48;15.43;;;;;;;;;;5023223;28;20045;-77
2022/11/05 10:23:11;;;;;;;32.20;15.57;;;;;;;;;;5017213;28;20067;-77
2022/11/05 10:26:04;;;;;;;34.80;16.23;;;;;;;;;;5016422;28;20046;-77
2022/11/05 10:28:50;;;;;;;35.97;19.08;;;;;;;;;;5023321;28;20050;-77
2022/11/05 10:31:37;;;;;;;31.70;18.27;;;;;;;;;;5016538;28;20046;-77
2022/11/05 10:34:27;;;;;;;30.60;17.00;;;;;;;;;;5016811;28;20037;-77
2022/11/05 10:37:13;;;;;;;31.88;16.63;;;;;;;;;;5014924;28;20042;-77
2022/11/05 10:39:59;;;;;;;33.10;16.42;;;;;;;;;;5021355;28;20050;-77
2022/11/05 10:43:00;;;;;;;34.85;17.92;;;;;;;;;;5022635;28;20148;-77
2022/11/05 10:45:56;;;;;;;39.35;18.40;;;;;;;;;;5016605;28;20037;-77
2022/11/05 10:48:56;;;;;;;35.13;17.80;;;;;;;;;;5023327;28;20041;-77
2022/11/05 10:51:42;;;;;;;32.65;18.00;;;;;;;;;;5022302;28;20050;-77
2022/11/05 10:54:32;;;;;;;35.72;17.13;;;;;;;;;;5016521;28;20038;-77
2022/11/05 10:57:31;;;;;;;34.05;19.10;;;;;;;;;;5016794;28;20050;-77
2022/11/05 11:00:17;;;;;;;34.03;18.55;;;;;;;;;;5022389;28;20045;-77
2022/11/05 11:03:24;;;;;;;35.47;19.95;;;;;;;;;;5016673;28;20403;-77
2022/11/05 11:06:25;;;;;;;37.80;17.50;;;;;;;;;;5016437;28;20046;-78
2022/11/05 11:09:24;;;;;;;41.88;18.77;;;;;;;;;;5016106;28;20050;-77
2022/11/05 11:12:41;;;;;;;35.22;18.73;;;;;;;;;;5015982;28;20038;-77
2022/11/05 11:15:33;;;;;;;47.15;18.48;;;;;;;;;;5016893;28;20045;-77
2022/11/05 11:18:40;;;;;;;54.88;17.73;;;;;;;;;;5016639;28;20038;-77
2022/11/05 11:21:27;;;;;;;28.13;16.35;;;;;;;;;;5016342;28;20054;-78
2022/11/05 11:24:22;;;;;;;36.83;18.08;;;;;;;;;;5015699;28;20046;-76
2022/11/05 11:27:34;;;;;;;34.92;16.88;;;;;;;;;;5015993;28;20075;-76
2022/11/05 11:30:19;;;;;;;35.92;18.10;;;;;;;;;;5021085;28;20042;-76
2022/11/05 11:33:08;;;;;;;56.47;27.67;;;;;;;;;;5022785;28;20041;-76
2022/11/05 11:35:53;;;;;;;42.25;24.80;;;;;;;;;;5016139;28;20041;-78
2022/11/05 11:38:39;;;;;;;38.90;18.55;;;;;;;;;;5017184;28;20034;-78
2022/11/05 11:41:28;;;;;;;57.03;22.67;;;;;;;;;;5016395;28;20391;-78
2022/11/05 11:44:25;;;;;;;74.68;29.35;;;;;;;;;;5022148;28;20046;-77
2022/11/05 11:47:17;;;;;;;41.20;19.55;;;;;;;;;;5015588;28;20491;-77
2022/11/05 11:50:03;;;;;;;37.28;17.60;;;;;;;;;;5022011;28;20045;-77
2022/11/05 11:52:48;;;;;;;35.85;16.63;;;;;;;;;;5015459;28;20042;-78
2022/11/05 11:55:34;;;;;;;42.03;19.73;;;;;;;;;;5025324;28;20042;-77
2022/11/05 11:58:33;;;;;;;44.25;22.10;;;;;;;;;;5021747;28;20046;-77
2022/11/05 12:01:40;;;;;;;46.97;23.13;;;;;;;;;;5015603;28;20491;-77
2022/11/05 12:04:52;;;;;;;39.58;20.90;;;;;;;;;;5016432;28;20049;-77
2022/11/05 12:08:09;;;;;;;21.55;10.32;;;;;;;;;;5014108;28;20046;-77
2022/11/05 12:11:19;;;;;;;36.28;20.17;;;;;;;;;;5015260;28;20050;-76
2022/11/05 12:14:33;;;;;;;46.70;19.73;;;;;;;;;;5017589;28;20046;-78
2022/11/05 12:18:00;;;;;;;50.35;25.27;;;;;;;;;;5015521;28;20038;-76
2022/11/05 12:20:51;;;;;;;39.33;21.38;;;;;;;;;;5039447;28;20057;-77
2022/11/05 12:23:48;;;;;;;31.23;16.70;;;;;;;;;;5014987;28;20049;-77
2022/11/05 12:27:03;;;;;;;45.70;22.00;;;;;;;;;;5014921;28;20400;-77
2022/11/05 12:29:57;;;;;;;49.60;25.00;;;;;;;;;;5015440;28;20050;-77
2022/11/05 12:33:06;;;;;;;49.95;22.77;;;;;;;;;;5015171;28;20395;-77
2022/11/05 12:35:56;;;;;;;43.28;21.25;;;;;;;;;;5015316;28;20054;-78
2022/11/05 12:39:13;;;;;;;45.17;23.05;;;;;;;;;;5015890;28;20049;-78
2022/11/05 12:42:08;;;;;;;46.47;23.10;;;;;;;;;;5023172;28;20046;-78
2022/11/05 12:45:12;;;;;;;49.33;23.33;;;;;;;;;;5014585;28;20045;-77
2022/11/05 12:48:36;;;;;;;40.45;21.25;;;;;;;;;;5014346;28;20038;-77
2022/11/05 12:52:09;;;;;;;24.25;13.95;;;;;;;;;;5014612;28;20037;-76
2022/11/05 12:55:06;;;;;;;27.60;16.42;;;;;;;;;;5031785;28;20049;-77
2022/11/05 12:57:56;;;;;;;45.65;24.45;;;;;;;;;;5014399;28;20050;-77
2022/11/05 13:00:45;;;;;;;24.80;12.77;;;;;;;;;;5014404;28;20041;-77
2022/11/05 13:03:42;;;;;;;19.60;10.52;;;;;;;;;;5014266;28;20049;-77
2022/11/05 13:06:39;;;;;;;31.85;15.57;;;;;;;;;;5014333;28;20046;-77
2022/11/05 13:09:34;;;;;;;25.75;13.57;;;;;;;;;;5014086;28;20046;-77
2022/11/05 13:12:24;;;;;;;22.88;13.10;;;;;;;;;;5013853;28;20476;-77
2022/11/05 13:15:27;;;;;;;28.08;14.95;;;;;;;;;;5013867;28;20037;-78
2022/11/05 13:18:21;;;;;;;18.17;10.88;;;;;;;;;;5013982;28;20049;-78
2022/11/05 13:21:08;;;;;;;40.90;17.33;;;;;;;;;;5014175;28;20046;-77
2022/11/05 13:23:56;;;;;;;29.02;16.10;;;;;;;;;;5020492;28;20054;-77
2022/11/05 13:26:46;;;;;;;23.73;11.80;;;;;;;;;;5018468;28;20046;-77
2022/11/05 13:29:34;;;;;;;24.80;12.27;;;;;;;;;;5012865;28;20046;-77
2022/11/05 13:32:42;;;;;;;23.90;13.38;;;;;;;;;;5012932;28;20054;-77
2022/11/05 13:35:33;;;;;;;11.75;7.95;;;;;;;;;;5020384;28;20053;-77
2022/11/05 13:41:34;;;;;;;14.55;9.30;;;;;;;;;;5013961;28;20042;-77
2022/11/05 13:44:59;;;;;;;17.70;10.20;;;;;;;;;;5013442;28;20038;-76
2022/11/05 13:48:00;;;;;;;15.32;7.88;;;;;;;;;;5019949;28;20415;-77
2022/11/05 13:51:00;;;;;;;14.55;6.68;;;;;;;;;;5013479;28;20045;-77
2022/11/05 13:54:16;;;;;;;15.10;8.55;;;;;;;;;;5019553;28;20053;-76
2022/11/05 13:57:46;;;;;;;21.00;9.68;;;;;;;;;;5012989;28;20046;-76
2022/11/05 14:00:40;;;;;;;11.90;7.38;;;;;;;;;;5019327;28;20042;-77
2022/11/05 14:03:25;;;;;;;10.93;6.38;;;;;;;;;;5019250;28;20046;-76
2022/11/05 14:06:11;;;;;;;10.20;5.30;;;;;;;;;;5013422;28;20399;-76
2022/11/05 14:09:01;;;;;;;9.75;4.82;;;;;;;;;;5013333;28;20487;-77
2022/11/05 14:11:50;;;;;;;11.10;6.20;;;;;;;;;;5015539;28;20037;-76
2022/11/05 14:14:44;;;;;;;10.23;5.15;;;;;;;;;;5013265;28;20047;-77
2022/11/05 14:17:53;;;;;;;19.73;6.68;;;;;;;;;;5013393;28;20058;-76
2022/11/05 14:20:43;;;;;;;10.18;6.57;;;;;;;;;;5012999;28;20038;-77
2022/11/05 14:23:29;;;;;;;18.85;8.52;;;;;;;;;;5013727;28;20046;-77
2022/11/05 14:26:19;;;;;;;14.55;8.68;;;;;;;;;;5013168;28;20053;-76
2022/11/05 14:29:04;;;;;;;12.15;7.63;;;;;;;;;;5020010;28;20049;-76
2022/11/05 14:31:49;;;;;;;11.85;6.80;;;;;;;;;;5013738;28;20046;-79
2022/11/05 14:35:02;;;;;;;9.40;5.95;;;;;;;;;;5013964;28;20049;-75
2022/11/05 14:37:51;;;;;;;11.43;6.68;;;;;;;;;;5013455;28;20483;-77
2022/11/05 14:40:42;;;;;;;13.93;7.20;;;;;;;;;;5020233;28;20057;-76
2022/11/05 14:43:32;;;;;;;9.25;6.35;;;;;;;;;;5014135;28;20042;-78
2022/11/05 14:46:19;;;;;;;10.00;5.63;;;;;;;;;;5013742;28;20046;-78
2022/11/05 14:49:04;;;;;;;21.10;10.68;;;;;;;;;;5012800;28;20054;-77
2022/11/05 14:51:52;;;;;;;12.95;7.78;;;;;;;;;;5013670;28;20050;-77
2022/11/05 14:54:45;;;;;;;13.75;7.82;;;;;;;;;;5013082;28;20046;-77
2022/11/05 14:57:43;;;;;;;11.70;6.93;;;;;;;;;;5015217;28;20046;-77
2022/11/05 15:00:28;;;;;;;13.93;8.52;;;;;;;;;;5016363;28;20042;-77
2022/11/05 15:03:40;;;;;;;12.25;8.18;;;;;;;;;;5018213;28;20101;-78
2022/11/05 15:06:27;;;;;;;12.32;6.28;;;;;;;;;;5022967;28;20058;-77
2022/11/05 15:09:22;;;;;;;23.52;12.35;;;;;;;;;;5018130;28;20045;-78
2022/11/05 15:12:31;;;;;;;13.02;5.88;;;;;;;;;;5018727;28;20045;-77
2022/11/05 15:15:26;;;;;;;15.30;7.88;;;;;;;;;;5018817;28;20050;-77
2022/11/05 15:18:26;;;;;;;13.65;8.88;;;;;;;;;;5017184;28;20046;-76
2022/11/05 15:21:15;;;;;;;18.30;10.40;;;;;;;;;;5022686;28;20038;-76
2022/11/05 15:24:02;;;;;;;17.85;9.25;;;;;;;;;;5016617;28;20042;-76
2022/11/05 15:27:07;;;;;;;19.58;9.95;;;;;;;;;;5022618;28;20045;-76
2022/11/05 15:29:53;;;;;;;27.60;14.07;;;;;;;;;;5015977;28;20498;-77
2022/11/05 15:32:38;;;;;;;16.45;9.55;;;;;;;;;;5022256;28;20042;-76
2022/11/05 15:35:27;;;;;;;22.42;11.50;;;;;;;;;;5015625;28;20045;-76
2022/11/05 15:38:28;;;;;;;36.92;17.63;;;;;;;;;;5015683;28;20042;-76
2022/11/05 15:41:26;;;;;;;28.67;13.60;;;;;;;;;;5015749;28;20403;-75
2022/11/05 15:44:40;;;;;;;18.48;11.18;;;;;;;;;;5020621;28;20050;-80
2022/11/05 15:47:30;;;;;;;78.07;31.50;;;;;;;;;;5017480;28;20046;-79
2022/11/05 15:50:16;;;;;;;29.45;14.82;;;;;;;;;;5015532;28;20041;-78
2022/11/05 15:53:14;;;;;;;17.77;9.93;;;;;;;;;;5022197;28;20042;-78
2022/11/05 15:56:06;;;;;;;27.83;14.00;;;;;;;;;;5015538;28;20041;-79
2022/11/05 15:58:59;;;;;;;33.70;15.30;;;;;;;;;;5021918;28;20041;-78
2022/11/05 16:02:30;;;;;;;62.75;23.52;;;;;;;;;;5015425;28;20046;-78
2022/11/05 16:05:16;;;;;;;40.28;18.05;;;;;;;;;;5014248;28;20049;-78
2022/11/05 16:08:04;;;;;;;40.65;14.93;;;;;;;;;;5014907;28;20050;-79
2022/11/05 16:10:53;;;;;;;27.52;10.48;;;;;;;;;;5015011;28;20042;-79
2022/11/05 16:13:40;;;;;;;28.92;12.15;;;;;;;;;;5015423;28;20054;-80
2022/11/05 16:16:32;;;;;;;23.23;10.13;;;;;;;;;;5015668;28;20042;-79
2022/11/05 16:19:36;;;;;;;20.77;12.38;;;;;;;;;;5015627;28;20149;-80
2022/11/05 16:22:22;;;;;;;96.53;26.77;;;;;;;;;;5015304;28;20057;-79
2022/11/05 16:25:46;;;;;;;163.10;44.65;;;;;;;;;;5021577;28;20038;-79
2022/11/05 16:28:32;;;;;;;70.45;22.83;;;;;;;;;;5024122;28;20037;-80
2022/11/05 16:31:26;;;;;;;112.50;29.35;;;;;;;;;;5014101;28;20050;-79
2022/11/05 16:34:41;;;;;;;52.70;20.58;;;;;;;;;;5014970;28;20046;-80
2022/11/05 16:37:29;;;;;;;19.55;10.73;;;;;;;;;;5021613;28;20050;-80
2022/11/05 16:40:20;;;;;;;21.38;10.85;;;;;;;;;;5014533;28;20054;-80
2022/11/05 16:43:22;;;;;;;50.15;17.35;;;;;;;;;;5020352;28;20050;-79
2022/11/05 16:46:10;;;;;;;27.42;9.23;;;;;;;;;;5013971;28;20054;-79
2022/11/05 16:48:55;;;;;;;37.53;14.65;;;;;;;;;;5021048;28;20341;-79
2022/11/05 16:51:41;;;;;;;24.77;10.75;;;;;;;;;;5014484;28;20042;-79
2022/11/05 16:54:26;;;;;;;49.17;17.40;;;;;;;;;;5014457;28;20050;-79
2022/11/05 16:57:31;;;;;;;48.60;18.13;;;;;;;;;;5014451;28;20145;-79
2022/11/05 17:00:18;;;;;;;23.33;11.23;;;;;;;;;;5014424;28;20042;-79
2022/11/05 17:03:04;;;;;;;24.13;10.88;;;;;;;;;;5014489;28;20471;-78
2022/11/05 17:05:49;;;;;;;34.13;14.20;;;;;;;;;;5014171;28;20387;-79
2022/11/05 17:08:35;;;;;;;25.20;11.77;;;;;;;;;;5014220;28;20041;-79
2022/11/05 17:11:21;;;;;;;25.60;13.93;;;;;;;;;;5014720;28;20042;-79
2022/11/05 17:14:12;;;;;;;26.42;11.10;;;;;;;;;;5022008;28;20045;-79
2022/11/05 17:17:02;;;;;;;12.40;7.68;;;;;;;;;;5013452;28;20387;-80
2022/11/05 17:19:47;;;;;;;15.10;7.90;;;;;;;;;;5013988;28;20500;-80
2022/11/05 17:22:31;;;;;;;15.07;8.32;;;;;;;;;;5013098;28;20391;-79